Time;durP1;ratioP1;P1;durP2;ratioP2;P2;SDS_P1;SDS_P2;PMS_P1;PMS_P2;Temp;Humidity;BMP_temperature;BMP_pressure;BME280_temperature;BME280_humidity;BME280_pressure;Samples;Min_cycle;Max_cycle;Signal;HPM_P1;HPM_P2
2022/11/14 00:02:00;;;;;;;6.50;4.77;;;;;;;18.86;42.49;101461.16;4994102;28;20041;-67
2022/11/14 00:04:25;;;;;;;6.75;5.00;;;;;;;18.82;42.36;101460.53;4993438;28;20330;-65
2022/11/14 00:06:50;;;;;;;7.50;4.87;;;;;;;18.83;42.35;101461.34;4993492;28;20509;-66
2022/11/14 00:09:16;;;;;;;6.37;4.70;;;;;;;18.79;42.47;101452.81;4993588;28;20321;-66
2022/11/14 00:11:41;;;;;;;6.37;4.90;;;;;;;18.75;42.38;101446.06;4993798;28;20349;-66
2022/11/14 00:14:06;;;;;;;7.40;4.90;;;;;;;18.80;42.42;101456.31;4993311;28;20325;-67
2022/11/14 00:16:31;;;;;;;7.18;5.07;;;;;;;18.76;42.59;101455.69;4993462;28;20383;-66
2022/11/14 00:18:57;;;;;;;5.80;4.28;;;;;;;18.74;42.57;101446.19;4993207;28;20033;-67
2022/11/14 00:21:22;;;;;;;7.47;5.22;;;;;;;18.68;42.54;101445.69;4993630;28;20034;-66
2022/11/14 00:23:47;;;;;;;7.63;4.95;;;;;;;18.66;42.17;101438.88;4992957;28;20048;-65
2022/11/14 00:26:12;;;;;;;6.93;4.82;;;;;;;18.66;42.21;101444.16;4993043;28;20058;-64
2022/11/14 00:28:38;;;;;;;7.03;5.30;;;;;;;18.62;42.15;101440.03;4993508;28;21267;-64
2022/11/14 00:31:03;;;;;;;7.27;4.93;;;;;;;18.61;42.22;101438.34;4993353;28;20038;-66
2022/11/14 00:33:28;;;;;;;6.93;5.18;;;;;;;18.62;42.30;101442.69;4992433;28;20267;-67
2022/11/14 00:35:55;;;;;;;6.07;4.70;;;;;;;18.56;42.46;101429.94;4992817;28;20385;-66
2022/11/14 00:38:21;;;;;;;6.57;4.75;;;;;;;18.57;42.42;101431.63;4992843;28;20275;-67
2022/11/14 00:40:46;;;;;;;6.43;4.47;;;;;;;18.57;42.49;101431.63;4993611;28;20034;-65
2022/11/14 00:43:11;;;;;;;6.60;4.57;;;;;;;18.52;42.27;101425.81;4992804;28;20068;-64
2022/11/14 00:45:37;;;;;;;5.60;4.17;;;;;;;18.47;42.47;101426.19;4993342;28;20034;-65
2022/11/14 00:48:02;;;;;;;6.20;4.50;;;;;;;18.47;42.15;101420.91;4993057;28;20342;-65
2022/11/14 00:50:27;;;;;;;7.03;4.57;;;;;;;18.49;42.28;101426.91;4993039;28;20295;-66
2022/11/14 00:52:52;;;;;;;7.90;4.93;;;;;;;18.48;42.44;101431.34;4992532;28;20048;-65
2022/11/14 00:55:18;;;;;;;6.27;4.63;;;;;;;18.34;42.43;101399.84;4992270;28;20288;-66
2022/11/14 00:57:43;;;;;;;7.13;4.57;;;;;;;18.40;42.35;101411.75;4992808;28;21066;-64
2022/11/14 01:00:11;;;;;;;6.82;4.80;;;;;;;18.37;42.06;101404.88;4992911;28;20597;-64
2022/11/14 01:02:36;;;;;;;7.22;4.80;;;;;;;18.37;42.13;101401.41;4992408;28;20034;-65
2022/11/14 01:05:01;;;;;;;6.00;4.37;;;;;;;18.34;42.33;101399.84;4992999;28;20077;-67
2022/11/14 01:07:26;;;;;;;6.18;4.40;;;;;;;18.36;42.27;101400.56;4992521;28;20322;-66
2022/11/14 01:09:52;;;;;;;7.15;4.50;;;;;;;18.36;42.22;101405.84;4992322;28;20097;-66
2022/11/14 01:12:17;;;;;;;6.78;4.45;;;;;;;18.31;42.38;101400.06;4992904;28;20045;-65
2022/11/14 01:14:42;;;;;;;5.95;4.18;;;;;;;18.34;42.30;101401.63;4992967;28;20096;-66
2022/11/14 01:17:08;;;;;;;6.15;4.50;;;;;;;18.31;42.00;101397.44;4992563;28;20044;-66
2022/11/14 01:19:33;;;;;;;6.60;4.53;;;;;;;18.29;42.00;101396.69;4992750;28;20054;-67
2022/11/14 01:21:58;;;;;;;7.03;4.65;;;;;;;18.30;42.27;101393.09;4992002;28;20041;-65
2022/11/14 01:24:24;;;;;;;5.73;4.43;;;;;;;18.28;42.19;101392.38;4991974;28;20447;-64
2022/11/14 01:26:49;;;;;;;5.97;3.90;;;;;;;18.25;42.14;101380.25;4991718;28;20592;-66
2022/11/14 01:29:14;;;;;;;6.83;4.70;;;;;;;18.23;41.98;101379.53;4992511;28;20275;-65
2022/11/14 01:31:40;;;;;;;5.28;3.72;;;;;;;18.23;42.09;101379.53;4992046;28;20326;-67
2022/11/14 01:34:06;;;;;;;7.28;4.43;;;;;;;18.18;42.22;101372.88;4991884;28;20466;-65
2022/11/14 01:36:31;;;;;;;6.25;4.30;;;;;;;18.15;42.05;101368.69;4992236;28;20081;-66
2022/11/14 01:38:57;;;;;;;7.13;4.20;;;;;;;18.18;41.79;101378.16;4992159;28;20029;-65
2022/11/14 01:41:22;;;;;;;6.90;4.53;;;;;;;18.13;42.13;101374.09;4992209;28;20501;-65
2022/11/14 01:43:48;;;;;;;6.22;3.95;;;;;;;18.06;41.70;101354.38;4991851;28;20295;-65
2022/11/14 01:46:27;;;;;;;7.53;4.30;;;;;;;18.15;42.10;101373.97;4992020;28;20594;-65
2022/11/14 01:48:58;;;;;;;6.78;4.45;;;;;;;18.15;41.99;101366.06;4991234;28;20034;-65
2022/11/14 01:51:28;;;;;;;6.63;3.97;;;;;;;18.10;41.99;101355.84;4992043;28;20705;-66
2022/11/14 01:53:57;;;;;;;7.18;4.70;;;;;;;18.16;41.93;101366.91;4991838;28;20086;-67
2022/11/14 01:56:28;;;;;;;5.65;4.25;;;;;;;18.16;42.09;101370.34;4991539;28;20074;-65
2022/11/14 01:59:01;;;;;;;5.35;4.05;;;;;;;18.17;41.98;101365.94;4992094;28;20034;-65
2022/11/14 02:01:29;;;;;;;5.22;4.03;;;;;;;18.15;41.82;101359.91;4991831;28;20038;-66
2022/11/14 02:03:56;;;;;;;5.93;3.85;;;;;;;18.07;41.97;101349.94;4992253;28;20038;-65
2022/11/14 02:06:24;;;;;;;5.68;3.90;;;;;;;18.14;41.52;101353.81;4991690;28;20034;-63
2022/11/14 02:08:50;;;;;;;7.25;4.30;;;;;;;18.19;41.64;101356.13;4991072;28;20139;-65
2022/11/14 02:11:16;;;;;;;6.22;3.92;;;;;;;18.16;42.07;101351.06;4991798;28;20120;-64
2022/11/14 02:13:41;;;;;;;5.93;4.28;;;;;;;18.18;41.98;101341.22;4991265;28;20034;-66
2022/11/14 02:16:06;;;;;;;5.50;4.25;;;;;;;18.16;41.74;101345.78;4991358;28;20320;-65
2022/11/14 02:18:32;;;;;;;5.90;4.30;;;;;;;18.12;41.54;101340.75;4991290;28;20030;-65
2022/11/14 02:20:57;;;;;;;5.63;4.10;;;;;;;18.13;41.44;101337.16;4991327;28;20034;-65
2022/11/14 02:23:30;;;;;;;6.93;4.33;;;;;;;18.16;41.54;101337.88;4991358;28;20044;-68
2022/11/14 02:25:55;;;;;;;6.57;4.30;;;;;;;18.16;41.54;101338.72;4991878;28;20359;-66
2022/11/14 02:28:22;;;;;;;6.00;3.70;;;;;;;18.09;41.51;101335.69;4990869;28;20105;-65
2022/11/14 02:30:47;;;;;;;5.80;3.80;;;;;;;18.11;41.80;101325.84;4991108;28;20120;-65
2022/11/14 02:33:14;;;;;;;6.43;3.55;;;;;;;18.12;41.63;101330.19;4990948;28;20124;-66
2022/11/14 02:35:39;;;;;;;5.22;3.75;;;;;;;18.06;41.65;101324.53;4991481;28;20038;-67
2022/11/14 02:38:05;;;;;;;5.88;4.05;;;;;;;18.09;41.64;101330.41;4990907;28;20033;-65
2022/11/14 02:40:31;;;;;;;5.40;3.63;;;;;;;18.00;41.37;101320.53;4991571;28;20474;-65
2022/11/14 02:42:56;;;;;;;5.60;3.80;;;;;;;18.06;41.42;101333.28;4991227;28;20060;-66
2022/11/14 02:45:21;;;;;;;5.80;3.90;;;;;;;18.01;41.52;101324.00;4991196;28;20052;-65
2022/11/14 02:47:47;;;;;;;6.57;3.65;;;;;;;17.94;41.33;101318.34;4991333;28;20437;-66
2022/11/14 02:50:12;;;;;;;5.38;3.95;;;;;;;18.01;41.47;101324.00;4990473;28;21045;-68
2022/11/14 02:52:37;;;;;;;5.50;3.95;;;;;;;17.98;41.27;101316.34;4991591;28;20081;-66
2022/11/14 02:55:04;;;;;;;6.00;4.20;;;;;;;17.99;41.41;101320.63;4990627;28;20100;-66
2022/11/14 02:57:29;;;;;;;7.45;4.32;;;;;;;17.95;41.33;101312.94;4991375;28;21088;-65
2022/11/14 02:59:54;;;;;;;4.90;3.60;;;;;;;17.92;41.32;101301.78;4993026;28;20038;-66
2022/11/14 03:02:20;;;;;;;6.07;3.95;;;;;;;17.97;41.35;101309.38;4994824;28;20042;-66
2022/11/14 03:04:45;;;;;;;6.38;3.92;;;;;;;17.92;41.36;101300.00;4995324;28;20048;-65
2022/11/14 03:07:10;;;;;;;6.85;4.18;;;;;;;17.93;41.37;101295.56;4994175;28;20339;-64
2022/11/14 03:09:35;;;;;;;6.35;4.05;;;;;;;17.98;41.32;101303.16;4995133;28;20126;-68
2022/11/14 03:12:01;;;;;;;6.03;3.70;;;;;;;17.93;41.05;101296.41;4994046;28;20914;-65
2022/11/14 03:14:28;;;;;;;5.70;3.58;;;;;;;17.92;41.15;101289.44;4994441;28;20268;-66
2022/11/14 03:16:54;;;;;;;5.47;4.05;;;;;;;17.98;40.89;101296.06;4994378;28;20038;-64
2022/11/14 03:19:19;;;;;;;5.93;3.95;;;;;;;17.98;40.98;101296.06;4994519;28;20507;-66
2022/11/14 03:21:45;;;;;;;5.57;3.90;;;;;;;17.93;41.09;101293.78;4993783;28;20037;-66
2022/11/14 03:24:10;;;;;;;5.27;3.67;;;;;;;17.92;40.74;101284.16;4994343;28;20799;-66
2022/11/14 03:26:35;;;;;;;6.33;3.53;;;;;;;17.97;40.84;101290.91;4994412;28;20329;-67
2022/11/14 03:29:00;;;;;;;5.72;3.65;;;;;;;17.95;40.83;101296.28;4994604;28;20321;-65
2022/11/14 03:31:26;;;;;;;5.33;3.83;;;;;;;17.92;40.92;101294.72;4994213;28;20597;-66
2022/11/14 03:33:51;;;;;;;6.37;3.60;;;;;;;17.89;41.22;101286.19;4993842;28;20325;-66
2022/11/14 03:36:16;;;;;;;6.80;3.83;;;;;;;17.85;41.14;101282.91;4994326;28;20260;-66
2022/11/14 03:38:42;;;;;;;7.55;3.90;;;;;;;17.85;40.63;101285.56;4993566;28;20263;-66
2022/11/14 03:41:07;;;;;;;5.85;3.50;;;;;;;17.84;40.70;101281.22;4994241;28;20030;-67
2022/11/14 03:43:33;;;;;;;6.80;4.05;;;;;;;17.81;40.56;101270.91;4993483;28;20031;-66
2022/11/14 03:46:00;;;;;;;5.68;3.92;;;;;;;17.83;40.78;101278.69;4994417;28;20026;-66
2022/11/14 03:48:25;;;;;;;5.68;3.70;;;;;;;17.79;40.94;101270.19;4993803;28;20034;-64
2022/11/14 03:50:51;;;;;;;6.35;4.00;;;;;;;17.84;40.90;101288.31;5000433;28;20037;-65
2022/11/14 03:53:16;;;;;;;6.18;3.50;;;;;;;17.79;40.58;101279.91;4993106;28;20029;-65
2022/11/14 03:55:44;;;;;;;5.60;3.57;;;;;;;17.85;40.78;101280.28;4993205;28;20124;-64
2022/11/14 03:58:09;;;;;;;5.38;3.65;;;;;;;17.84;40.67;101278.59;4992786;28;20442;-66
2022/11/14 04:00:35;;;;;;;5.50;3.53;;;;;;;17.73;40.50;101262.72;4993870;28;20121;-67
2022/11/14 04:03:00;;;;;;;5.88;3.72;;;;;;;17.78;40.57;101265.84;4993936;28;20260;-66
2022/11/14 04:05:26;;;;;;;6.40;4.13;;;;;;;17.83;40.67;101273.41;4993926;28;20111;-66
2022/11/14 04:07:51;;;;;;;6.10;3.83;;;;;;;17.79;40.44;101258.81;4993862;28;20286;-66
2022/11/14 04:10:17;;;;;;;6.43;3.83;;;;;;;17.81;40.86;101259.53;4992951;28;20436;-65
2022/11/14 04:12:52;;;;;;;5.07;3.45;;;;;;;17.77;40.25;101254.47;4993287;28;20264;-68
2022/11/14 04:15:18;;;;;;;5.93;3.97;;;;;;;17.75;40.55;101251.13;4992609;28;20030;-67
2022/11/14 04:17:44;;;;;;;5.70;3.60;;;;;;;17.80;40.68;101263.09;4993735;28;20030;-67
2022/11/14 04:20:11;;;;;;;5.20;3.47;;;;;;;17.74;40.26;101249.41;4992023;28;20117;-66
2022/11/14 04:22:36;;;;;;;5.18;3.50;;;;;;;17.73;40.15;101242.47;4991517;28;20030;-66
2022/11/14 04:25:02;;;;;;;6.10;3.78;;;;;;;17.77;40.53;101251.00;4993365;28;20034;-66
2022/11/14 04:27:27;;;;;;;5.97;3.72;;;;;;;17.73;40.46;101244.25;4992891;28;20052;-65
2022/11/14 04:29:53;;;;;;;6.40;3.77;;;;;;;17.75;39.99;101243.22;4993015;28;20076;-67
2022/11/14 04:32:18;;;;;;;5.50;3.53;;;;;;;17.71;40.25;101230.34;4993134;28;20624;-66
2022/11/14 04:34:43;;;;;;;5.80;3.93;;;;;;;17.70;40.35;101234.78;4993160;28;20294;-67
2022/11/14 04:37:09;;;;;;;6.05;3.67;;;;;;;17.75;40.15;101244.97;4992793;28;20280;-66
2022/11/14 04:39:34;;;;;;;6.57;4.00;;;;;;;17.74;40.54;101235.41;5000136;28;20059;-68
2022/11/14 04:41:59;;;;;;;5.43;3.47;;;;;;;17.75;40.17;101239.72;4993021;28;20038;-66
2022/11/14 04:44:24;;;;;;;5.43;3.63;;;;;;;17.73;40.16;101236.34;4992216;28;20267;-66
2022/11/14 04:46:50;;;;;;;6.13;3.50;;;;;;;17.74;40.33;101232.78;4992380;28;20066;-65
2022/11/14 04:49:15;;;;;;;5.47;3.47;;;;;;;17.74;40.08;101235.41;4992543;28;20264;-68
2022/11/14 04:51:40;;;;;;;5.37;3.40;;;;;;;17.67;40.13;101232.34;4992273;28;20030;-67
2022/11/14 04:54:05;;;;;;;5.73;3.67;;;;;;;17.70;40.33;101232.13;4993171;28;20342;-66
2022/11/14 04:56:31;;;;;;;5.82;3.67;;;;;;;17.72;40.40;101226.75;4992202;28;20302;-65
2022/11/14 04:58:56;;;;;;;5.03;3.60;;;;;;;17.71;40.34;101225.91;4992432;28;20048;-68
2022/11/14 05:01:21;;;;;;;5.83;3.80;;;;;;;17.70;40.14;101226.03;4991458;28;20347;-66
2022/11/14 05:03:46;;;;;;;6.68;3.70;;;;;;;17.70;40.54;101228.66;4992627;28;20271;-67
2022/11/14 05:06:12;;;;;;;5.40;3.47;;;;;;;17.63;40.17;101220.38;4992580;28;20038;-66
2022/11/14 05:08:37;;;;;;;6.30;3.70;;;;;;;17.62;40.36;101217.84;4992427;28;20275;-65
2022/11/14 05:11:02;;;;;;;5.60;3.75;;;;;;;17.64;40.53;101216.78;4991975;28;20360;-64
2022/11/14 05:13:28;;;;;;;5.57;3.67;;;;;;;17.70;40.20;101218.13;4992498;28;20038;-65
2022/11/14 05:15:58;;;;;;;6.15;3.75;;;;;;;17.64;40.18;101213.28;4991755;28;20618;-67
2022/11/14 05:18:23;;;;;;;6.63;3.95;;;;;;;17.60;40.35;101202.16;4992934;28;20034;-67
2022/11/14 05:20:49;;;;;;;6.07;3.80;;;;;;;17.66;40.25;101209.59;4992088;28;20045;-66
2022/11/14 05:23:20;;;;;;;6.97;3.80;;;;;;;17.68;40.30;101202.41;4991212;28;20806;-66
2022/11/14 05:25:46;;;;;;;5.78;3.97;;;;;;;17.64;40.07;101203.63;4991834;28;20275;-66
2022/11/14 05:28:12;;;;;;;6.60;4.18;;;;;;;17.66;40.16;101204.34;4991546;28;21111;-68
2022/11/14 05:30:37;;;;;;;6.70;4.00;;;;;;;17.63;40.34;101201.09;4992078;28;20096;-65
2022/11/14 05:33:03;;;;;;;5.97;3.70;;;;;;;17.61;39.98;101189.81;4992284;28;20041;-66
2022/11/14 05:35:28;;;;;;;5.75;3.67;;;;;;;17.59;40.09;101188.13;4991539;28;20761;-65
2022/11/14 05:37:53;;;;;;;5.43;3.60;;;;;;;17.65;40.26;101201.81;4991661;28;20033;-66
2022/11/14 05:40:19;;;;;;;6.37;3.70;;;;;;;17.65;40.34;101196.53;4992555;28;20065;-68
2022/11/14 05:42:44;;;;;;;5.50;3.67;;;;;;;17.62;40.50;101189.69;4992018;28;20295;-68
2022/11/14 05:45:09;;;;;;;6.03;3.83;;;;;;;17.63;40.00;101190.56;4991681;28;20276;-66
2022/11/14 05:47:35;;;;;;;5.78;3.72;;;;;;;17.57;40.25;101181.28;4991736;28;20263;-67
2022/11/14 05:50:00;;;;;;;6.47;3.90;;;;;;;17.56;40.35;101183.09;4991027;28;20100;-66
2022/11/14 05:52:25;;;;;;;6.90;3.80;;;;;;;17.57;40.37;101181.28;4990959;28;20030;-66
2022/11/14 05:54:51;;;;;;;5.68;3.78;;;;;;;17.64;39.93;101203.63;4990870;28;20051;-65
2022/11/14 05:57:16;;;;;;;6.27;3.90;;;;;;;17.57;40.18;101191.81;4992425;28;20438;-68
2022/11/14 05:59:41;;;;;;;6.78;4.05;;;;;;;17.60;40.05;101191.59;4991504;28;20260;-65
2022/11/14 06:02:07;;;;;;;5.70;4.15;;;;;;;17.58;40.01;101189.09;4991495;28;20493;-66
2022/11/14 06:04:32;;;;;;;7.13;3.67;;;;;;;17.61;39.83;101189.81;4991464;28;20044;-64
2022/11/14 06:06:57;;;;;;;6.40;3.97;;;;;;;17.61;40.19;101187.16;4991169;28;20169;-66
2022/11/14 06:09:22;;;;;;;7.80;4.00;;;;;;;17.60;40.84;101175.78;4991399;28;20362;-65
2022/11/14 06:11:47;;;;;;;6.23;3.70;;;;;;;17.57;40.87;101176.84;4991975;28;21066;-66
2022/11/14 06:14:13;;;;;;;6.20;3.90;;;;;;;17.62;41.04;101175.69;4991807;28;20264;-66
2022/11/14 06:16:38;;;;;;;6.05;3.83;;;;;;;17.70;41.39;101179.41;4991436;28;20431;-65
2022/11/14 06:19:04;;;;;;;5.80;3.43;;;;;;;17.75;41.24;101185.22;4991968;28;20389;-65
2022/11/14 06:21:29;;;;;;;5.70;3.53;;;;;;;17.88;41.36;101197.50;4991289;28;20271;-67
2022/11/14 06:23:54;;;;;;;5.82;3.60;;;;;;;17.92;41.47;101194.50;4991926;28;20033;-66
2022/11/14 06:26:21;;;;;;;5.63;3.80;;;;;;;17.98;41.37;101195.84;4991439;28;20076;-66
2022/11/14 06:28:48;;;;;;;5.18;3.40;;;;;;;18.01;41.15;101189.50;4992099;28;20047;-66
2022/11/14 06:31:13;;;;;;;5.15;3.40;;;;;;;18.08;41.32;101194.19;4991389;28;20033;-65
2022/11/14 06:33:39;;;;;;;6.38;3.70;;;;;;;18.08;41.03;101188.09;4991526;28;20216;-65
2022/11/14 06:36:06;;;;;;;5.63;3.50;;;;;;;18.11;41.09;101186.06;4994597;28;20045;-66
2022/11/14 06:38:33;;;;;;;6.00;3.63;;;;;;;18.12;40.82;101187.75;4994626;28;20272;-66
2022/11/14 06:41:10;;;;;;;5.85;3.80;;;;;;;18.13;41.12;101178.03;4995185;28;20034;-65
2022/11/14 06:43:38;;;;;;;5.43;3.55;;;;;;;18.19;41.09;101196.03;4995598;28;20068;-65
2022/11/14 06:46:05;;;;;;;5.63;3.80;;;;;;;18.17;41.00;101192.69;4995371;28;20462;-66
2022/11/14 06:48:31;;;;;;;5.80;3.70;;;;;;;18.23;40.92;101192.22;4995132;28;20030;-66
2022/11/14 06:50:58;;;;;;;5.90;3.65;;;;;;;18.22;40.85;101189.69;4995434;28;20060;-65
2022/11/14 06:53:23;;;;;;;5.53;3.20;;;;;;;18.26;41.10;101197.25;4995486;28;20076;-65
2022/11/14 06:56:00;;;;;;;5.50;3.40;;;;;;;18.23;40.88;101197.50;4994877;28;20070;-66
2022/11/14 06:58:32;;;;;;;5.60;3.60;;;;;;;18.16;40.94;101169.06;4995082;28;20036;-67
2022/11/14 07:01:09;;;;;;;5.95;3.90;;;;;;;18.20;41.04;101170.47;4994974;28;20038;-65
2022/11/14 07:03:34;;;;;;;5.97;3.67;;;;;;;18.30;40.83;101200.50;4994519;28;20042;-66
2022/11/14 07:06:00;;;;;;;5.45;3.55;;;;;;;18.34;40.54;101201.09;4994539;28;20056;-69
2022/11/14 07:08:26;;;;;;;5.65;3.80;;;;;;;18.37;40.50;101217.53;4994926;28;20102;-65
2022/11/14 07:10:52;;;;;;;6.78;4.25;;;;;;;18.34;40.64;101209.88;4994556;28;20485;-67
2022/11/14 07:13:17;;;;;;;5.82;3.63;;;;;;;18.39;40.59;101213.00;4994946;28;20042;-65
2022/11/14 07:15:52;;;;;;;6.17;3.60;;;;;;;18.41;40.81;101207.59;5000861;28;20046;-68
2022/11/14 07:18:18;;;;;;;6.57;3.95;;;;;;;18.42;38.76;101210.13;4994440;28;21290;-66
2022/11/14 07:20:43;;;;;;;7.47;4.20;;;;;;;18.40;39.69;101211.19;4994491;28;20552;-63
2022/11/14 07:23:08;;;;;;;6.70;4.00;;;;;;;18.43;40.16;101221.50;4994297;28;20041;-67
2022/11/14 07:25:34;;;;;;;6.90;3.40;;;;;;;18.42;39.96;101218.03;4994131;28;20125;-66
2022/11/14 07:27:59;;;;;;;6.10;3.83;;;;;;;18.44;40.11;101216.13;4994476;28;20294;-66
2022/11/14 07:30:24;;;;;;;6.05;3.70;;;;;;;18.46;40.32;101202.81;4994594;28;20773;-67
2022/11/14 07:32:56;;;;;;;7.00;3.97;;;;;;;18.49;39.55;101206.03;4993623;28;20041;-68
2022/11/14 07:35:22;;;;;;;6.07;4.10;;;;;;;18.51;40.41;101210.38;4994512;28;20030;-67
2022/11/14 07:37:48;;;;;;;6.25;3.60;;;;;;;18.50;40.42;101204.25;4994743;28;20027;-66
2022/11/14 07:40:14;;;;;;;7.50;4.28;;;;;;;18.54;40.50;101199.56;4993688;28;20081;-65
2022/11/14 07:42:39;;;;;;;6.05;3.78;;;;;;;18.55;40.64;101193.31;4994259;28;20041;-67
2022/11/14 07:45:05;;;;;;;5.87;3.70;;;;;;;18.54;40.69;101186.38;4994006;28;20105;-66
2022/11/14 07:47:30;;;;;;;6.80;3.85;;;;;;;18.59;40.71;101192.97;4992619;28;20736;-67
2022/11/14 07:49:56;;;;;;;6.53;3.97;;;;;;;18.55;40.42;101177.47;4994369;28;20041;-65
2022/11/14 07:52:21;;;;;;;8.60;4.05;;;;;;;18.58;40.66;101182.53;4993591;28;20120;-64
2022/11/14 07:54:46;;;;;;;6.35;3.85;;;;;;;18.56;40.54;101184.44;4993969;28;20073;-66
2022/11/14 07:57:11;;;;;;;6.13;4.05;;;;;;;18.58;40.72;101190.44;4994260;28;20052;-66
2022/11/14 07:59:37;;;;;;;5.70;3.67;;;;;;;18.58;40.84;101182.53;4993718;28;20034;-66
2022/11/14 08:02:02;;;;;;;6.80;4.00;;;;;;;18.63;40.75;101185.66;4993602;28;20283;-65
2022/11/14 08:04:27;;;;;;;6.75;3.97;;;;;;;18.59;40.93;101174.47;4993836;28;20263;-67
2022/11/14 08:06:52;;;;;;;7.10;3.97;;;;;;;18.66;41.16;101177.50;4993769;28;20050;-68
2022/11/14 08:09:18;;;;;;;5.88;3.78;;;;;;;18.68;41.20;101179.06;4994064;28;20363;-69
2022/11/14 08:11:49;;;;;;;6.20;4.15;;;;;;;18.65;40.76;101166.09;4994021;28;20025;-65
2022/11/14 08:14:15;;;;;;;5.65;3.83;;;;;;;18.66;41.06;101164.31;4993854;28;20030;-66
2022/11/14 08:16:40;;;;;;;7.50;3.95;;;;;;;18.74;41.05;101164.53;4993563;28;20044;-64
2022/11/14 08:19:05;;;;;;;11.73;3.92;;;;;;;18.76;41.37;101161.78;4993749;28;20053;-65
2022/11/14 08:21:31;;;;;;;8.23;3.90;;;;;;;18.77;41.17;101158.16;4993126;28;20470;-65
2022/11/14 08:23:56;;;;;;;7.57;3.90;;;;;;;18.76;41.39;101152.03;4993698;28;20060;-64
2022/11/14 08:26:21;;;;;;;5.80;3.93;;;;;;;18.71;40.64;101142.78;4993082;28;20034;-64
2022/11/14 08:28:46;;;;;;;7.63;4.00;;;;;;;18.74;41.24;101158.41;4993466;28;20270;-64
2022/11/14 08:31:15;;;;;;;8.00;4.13;;;;;;;18.71;41.11;101154.22;4993191;28;20022;-67
2022/11/14 08:33:40;;;;;;;7.20;3.92;;;;;;;18.70;40.65;101147.25;4993151;28;20276;-64
2022/11/14 08:36:06;;;;;;;6.97;4.00;;;;;;;18.70;40.93;101152.53;4992948;28;20034;-66
2022/11/14 08:38:33;;;;;;;6.75;4.10;;;;;;;18.68;40.46;101141.25;4993533;28;20798;-64
2022/11/14 08:40:59;;;;;;;6.60;3.90;;;;;;;18.73;40.63;101144.38;4992413;28;20038;-66
2022/11/14 08:43:25;;;;;;;7.43;4.20;;;;;;;18.70;40.73;101141.13;4992956;28;20137;-65
2022/11/14 08:45:50;;;;;;;5.88;3.83;;;;;;;18.71;40.45;101143.66;4992644;28;20034;-65
2022/11/14 08:48:15;;;;;;;7.88;4.03;;;;;;;18.68;40.68;101133.34;4992856;28;20513;-66
2022/11/14 08:50:41;;;;;;;7.65;3.75;;;;;;;18.71;40.53;101148.94;4992861;28;20479;-65
2022/11/14 08:53:06;;;;;;;9.50;3.80;;;;;;;18.66;40.44;101135.28;4993311;28;20034;-65
2022/11/14 08:55:31;;;;;;;6.18;3.95;;;;;;;18.65;40.38;101142.31;4992356;28;20046;-65
2022/11/14 08:57:57;;;;;;;8.30;4.20;;;;;;;18.64;40.61;101137.16;4992578;28;20034;-64
2022/11/14 09:00:22;;;;;;;8.63;4.05;;;;;;;18.65;40.74;101139.69;4992190;28;20330;-65
2022/11/14 09:02:47;;;;;;;6.15;4.10;;;;;;;18.63;40.57;101138.16;4992922;28;20069;-65
2022/11/14 09:05:12;;;;;;;6.07;3.83;;;;;;;18.67;40.88;101145.72;4992414;28;20033;-64
2022/11/14 09:07:39;;;;;;;6.13;3.85;;;;;;;18.61;40.69;101129.50;4992333;28;20288;-64
2022/11/14 09:10:05;;;;;;;8.07;4.25;;;;;;;18.60;40.44;101130.47;4992989;28;20042;-64
2022/11/14 09:12:30;;;;;;;7.63;3.90;;;;;;;18.60;40.58;101133.09;4991833;28;20037;-65
2022/11/14 09:14:55;;;;;;;6.97;4.45;;;;;;;18.61;40.79;101134.78;4992663;28;20375;-66
2022/11/14 09:17:20;;;;;;;6.80;3.83;;;;;;;18.58;40.36;101130.59;4991975;28;20080;-65
2022/11/14 09:19:46;;;;;;;8.70;4.17;;;;;;;18.56;40.64;101119.28;4992680;28;20301;-64
2022/11/14 09:22:11;;;;;;;7.10;4.10;;;;;;;18.59;40.43;101118.22;4991964;28;20807;-64
2022/11/14 09:24:36;;;;;;;6.80;4.10;;;;;;;18.59;40.78;101118.22;4992328;28;20038;-65
2022/11/14 09:27:02;;;;;;;5.73;3.67;;;;;;;18.56;40.92;101119.28;4992795;28;20393;-64
2022/11/14 09:29:27;;;;;;;6.65;3.90;;;;;;;18.57;40.86;101120.16;4992091;28;20329;-67
2022/11/14 09:31:53;;;;;;;6.97;3.77;;;;;;;18.53;40.67;101108.16;4991999;28;20034;-66
2022/11/14 09:34:19;;;;;;;5.72;4.00;;;;;;;18.55;40.52;101114.13;4992290;28;20282;-64
2022/11/14 09:36:45;;;;;;;6.38;3.90;;;;;;;18.51;40.73;101115.34;4992194;28;20034;-65
2022/11/14 09:39:11;;;;;;;6.32;3.97;;;;;;;18.49;40.94;101105.75;4992181;28;20433;-65
2022/11/14 09:42:26;;;;;;;7.15;4.05;;;;;;;18.53;40.73;101116.88;4991815;28;20035;-63
2022/11/14 09:44:52;;;;;;;7.13;4.00;;;;;;;18.53;41.04;101105.50;4969872;28;20037;-64
2022/11/14 09:47:29;;;;;;;6.23;3.93;;;;;;;18.49;40.93;101094.34;4970088;28;20410;-64
2022/11/14 09:50:05;;;;;;;6.35;3.70;;;;;;;18.53;40.48;101106.34;4983739;28;20085;-64
2022/11/14 09:52:37;;;;;;;6.40;3.70;;;;;;;18.48;41.23;101106.72;4991760;28;20080;-65
2022/11/14 09:55:11;;;;;;;6.32;3.80;;;;;;;18.51;41.10;101116.19;4991012;28;20054;-65
2022/11/14 09:57:36;;;;;;;;;;;;;;;18.49;41.10;101113.66;4992631;28;20486;-65
2022/11/14 10:00:21;;;;;;;6.07;3.75;;;;;;;18.51;40.81;101110.06;4991537;28;19913;-65
2022/11/14 10:02:53;;;;;;;7.55;4.35;;;;;;;18.51;41.09;101112.72;4991610;28;20053;-65
2022/11/14 10:05:58;;;;;;;5.85;3.90;;;;;;;18.45;40.87;101104.31;4991599;28;20031;-63
2022/11/14 10:08:38;;;;;;;7.03;3.90;;;;;;;18.44;41.02;101100.00;4991098;28;20435;-64
2022/11/14 10:11:14;;;;;;;5.60;3.85;;;;;;;18.49;41.18;101105.75;4991353;28;20394;-64
2022/11/14 10:14:01;;;;;;;5.82;3.55;;;;;;;18.48;40.84;101106.72;4991828;28;20478;-63
2022/11/14 10:16:40;;;;;;;5.40;3.80;;;;;;;18.48;40.85;101112.00;4992146;28;20047;-65
2022/11/14 10:19:33;;;;;;;8.00;4.22;;;;;;;18.47;41.05;101109.47;4992110;28;20125;-65
2022/11/14 10:22:19;;;;;;;7.13;3.70;;;;;;;18.47;41.07;101105.03;4989839;28;20050;-65
2022/11/14 10:25:08;;;;;;;6.03;3.97;;;;;;;18.47;41.17;101091.84;4991554;28;20088;-66
2022/11/14 10:27:51;;;;;;;5.90;3.70;;;;;;;18.43;40.91;101095.66;4992048;28;20164;-65
2022/11/14 10:30:18;;;;;;;7.00;4.00;;;;;;;18.48;41.13;101097.94;4991476;28;20478;-68
2022/11/14 10:33:09;;;;;;;6.30;4.15;;;;;;;18.31;41.46;101071.09;4991290;28;20030;-64
2022/11/14 10:35:38;;;;;;;6.70;3.60;;;;;;;18.43;41.20;101079.84;4991585;28;20030;-65
2022/11/14 10:38:13;;;;;;;6.45;4.10;;;;;;;18.45;40.87;101085.00;4991442;28;20046;-64
2022/11/14 10:40:43;;;;;;;7.00;3.28;;;;;;;18.51;41.05;101100.34;4991258;28;20034;-63
2022/11/14 10:43:19;;;;;;;7.20;3.67;;;;;;;18.53;41.14;101102.88;4991250;28;20065;-64
2022/11/14 10:45:53;;;;;;;7.13;3.67;;;;;;;18.48;41.32;101087.38;4991313;28;20038;-65
2022/11/14 10:48:48;;;;;;;5.47;3.75;;;;;;;18.53;41.17;101092.31;4992089;28;20034;-65
2022/11/14 10:51:33;;;;;;;5.72;3.67;;;;;;;18.55;41.32;101093.88;4990376;28;20046;-64
2022/11/14 10:54:11;;;;;;;5.50;3.83;;;;;;;18.52;40.94;101077.41;4991286;28;20050;-65
2022/11/14 10:56:51;;;;;;;6.35;3.88;;;;;;;18.55;41.23;101083.31;4991216;28;20042;-65
2022/11/14 10:59:18;;;;;;;5.60;3.70;;;;;;;18.56;41.00;101078.88;4991144;28;20148;-64
2022/11/14 11:01:55;;;;;;;6.03;3.65;;;;;;;18.53;41.17;101071.19;4990607;28;20050;-65
2022/11/14 11:04:20;;;;;;;6.78;3.75;;;;;;;18.58;41.31;101077.78;4991430;28;20097;-64
2022/11/14 11:06:50;;;;;;;5.83;3.77;;;;;;;18.58;41.47;101076.94;4991054;28;20069;-65
2022/11/14 11:12:02;;;;;;;5.82;3.60;;;;;;;18.55;41.47;101061.34;4990600;28;20096;-66
2022/11/14 11:14:29;;;;;;;6.05;3.75;;;;;;;18.57;41.57;101060.28;4990496;28;20198;-64
2022/11/14 11:17:09;;;;;;;5.40;3.45;;;;;;;18.61;41.20;101061.72;4991249;28;20124;-65
2022/11/14 11:19:35;;;;;;;5.95;3.60;;;;;;;18.61;41.37;101045.03;4990917;28;20049;-66
2022/11/14 11:22:00;;;;;;;6.15;3.88;;;;;;;18.61;41.13;101034.47;4993740;28;20041;-65
2022/11/14 11:24:36;;;;;;;5.07;3.47;;;;;;;18.62;41.23;101036.16;4993994;28;20458;-64
2022/11/14 11:27:22;;;;;;;6.60;3.38;;;;;;;18.63;41.24;101040.47;4994431;28;20126;-63
2022/11/14 11:30:06;;;;;;;6.22;3.78;;;;;;;18.62;41.24;101036.97;4994426;28;20478;-65